PKR weather

Pokhara Airport
Pokhara, Gandaki, Nepal

Public forecast

Using degrees Celsius for public forecast. Weather courtesy of forecast.io.

Closest aviation weather report (METAR) to Pokhara Airport

Closest report is Tribhuvan International Airport, 79.1 nm (146.4 km) ESE. Retrieved 2020/01/24 04:20 UTC (23 minutes ago):

VNKT 240420Z 09009KT 5000 BR FEW010 10/05 Q1018 NOSIG

Closest aviation forecast (TAF) to Pokhara Airport

Closest forecast is Tribhuvan International Airport, 79.1 nm (146.4 km) ESE. Retrieved 2020-01-24 00:23 UTC (4 hours ago):

TAF VNKT 232300Z 2400/2424 VRB02KT 3000 BR FEW010 PROB40 2401/2403 1500 BR BECMG 2404/2405 13004KT 4000 HZ FEW015 BECMG 2407/2408 23007KT 8000 FEW020 SCT100 BECMG 2414/2415 VRB02KT 6000 FEW015